sensor_id;sensor_type;location;lat;lon;timestamp;temperature;humidity
21338;DHT22;10827;50.878;4.382;2022-07-17T00:01:06;19.20;1.00
21338;DHT22;10827;50.878;4.382;2022-07-17T00:03:32;19.20;1.00
21338;DHT22;10827;50.878;4.382;2022-07-17T00:05:57;19.20;1.00
21338;DHT22;10827;50.878;4.382;2022-07-17T00:08:23;19.20;1.00
21338;DHT22;10827;50.878;4.382;2022-07-17T00:10:50;18.90;99.90
21338;DHT22;10827;50.878;4.382;2022-07-17T00:13:16;19.10;99.90
21338;DHT22;10827;50.878;4.382;2022-07-17T00:18:07;19.10;1.00
21338;DHT22;10827;50.878;4.382;2022-07-17T00:20:34;19.10;99.90
21338;DHT22;10827;50.878;4.382;2022-07-17T00:23:00;19.10;99.90
21338;DHT22;10827;50.878;4.382;2022-07-17T00:25:26;18.80;1.00
21338;DHT22;10827;50.878;4.382;2022-07-17T00:27:52;18.70;1.00
21338;DHT22;10827;50.878;4.382;2022-07-17T00:30:18;18.90;1.00
21338;DHT22;10827;50.878;4.382;2022-07-17T00:32:44;19.10;99.90
21338;DHT22;10827;50.878;4.382;2022-07-17T00:35:10;19.60;99.90
21338;DHT22;10827;50.878;4.382;2022-07-17T00:37:40;19.90;33.80
21338;DHT22;10827;50.878;4.382;2022-07-17T00:40:08;19.90;46.40
21338;DHT22;10827;50.878;4.382;2022-07-17T00:42:35;19.70;99.90
21338;DHT22;10827;50.878;4.382;2022-07-17T00:45:00;19.60;1.00
21338;DHT22;10827;50.878;4.382;2022-07-17T00:47:26;19.10;1.00
21338;DHT22;10827;50.878;4.382;2022-07-17T00:52:18;18.50;99.90
21338;DHT22;10827;50.878;4.382;2022-07-17T00:54:46;18.50;99.90
21338;DHT22;10827;50.878;4.382;2022-07-17T00:57:14;18.70;1.00
21338;DHT22;10827;50.878;4.382;2022-07-17T00:59:41;19.00;99.90
21338;DHT22;10827;50.878;4.382;2022-07-17T01:02:09;19.00;1.00
21338;DHT22;10827;50.878;4.382;2022-07-17T01:04:35;19.30;99.90
21338;DHT22;10827;50.878;4.382;2022-07-17T01:07:03;19.50;1.00
21338;DHT22;10827;50.878;4.382;2022-07-17T01:09:29;19.50;99.90
21338;DHT22;10827;50.878;4.382;2022-07-17T01:11:56;19.40;1.00
21338;DHT22;10827;50.878;4.382;2022-07-17T01:14:23;19.10;99.90
21338;DHT22;10827;50.878;4.382;2022-07-17T01:16:50;19.00;1.00
21338;DHT22;10827;50.878;4.382;2022-07-17T01:19:16;18.50;1.00
21338;DHT22;10827;50.878;4.382;2022-07-17T01:21:49;18.10;99.90
21338;DHT22;10827;50.878;4.382;2022-07-17T01:24:16;18.10;1.00
21338;DHT22;10827;50.878;4.382;2022-07-17T01:26:47;18.20;1.00
21338;DHT22;10827;50.878;4.382;2022-07-17T01:29:15;18.50;99.90
21338;DHT22;10827;50.878;4.382;2022-07-17T01:31:42;18.60;99.90
21338;DHT22;10827;50.878;4.382;2022-07-17T01:34:09;19.00;1.00
21338;DHT22;10827;50.878;4.382;2022-07-17T01:36:37;19.40;1.00
21338;DHT22;10827;50.878;4.382;2022-07-17T01:39:04;19.00;1.00
21338;DHT22;10827;50.878;4.382;2022-07-17T01:41:30;18.90;1.00
21338;DHT22;10827;50.878;4.382;2022-07-17T01:43:56;18.80;1.00
21338;DHT22;10827;50.878;4.382;2022-07-17T01:46:22;18.90;1.00
21338;DHT22;10827;50.878;4.382;2022-07-17T01:48:47;18.90;1.00
21338;DHT22;10827;50.878;4.382;2022-07-17T01:56:05;18.60;99.90
21338;DHT22;10827;50.878;4.382;2022-07-17T01:58:31;18.70;99.90
21338;DHT22;10827;50.878;4.382;2022-07-17T02:01:00;18.90;99.90
21338;DHT22;10827;50.878;4.382;2022-07-17T02:05:54;18.00;1.00
21338;DHT22;10827;50.878;4.382;2022-07-17T02:08:19;18.00;1.00
21338;DHT22;10827;50.878;4.382;2022-07-17T02:10:45;18.40;99.90
21338;DHT22;10827;50.878;4.382;2022-07-17T02:13:11;18.20;1.00
21338;DHT22;10827;50.878;4.382;2022-07-17T02:15:37;18.40;99.90
21338;DHT22;10827;50.878;4.382;2022-07-17T02:18:02;18.70;99.90
21338;DHT22;10827;50.878;4.382;2022-07-17T02:20:28;18.60;99.90
21338;DHT22;10827;50.878;4.382;2022-07-17T02:22:54;18.60;99.90
21338;DHT22;10827;50.878;4.382;2022-07-17T02:25:20;18.50;99.90
21338;DHT22;10827;50.878;4.382;2022-07-17T02:27:46;18.30;99.90
21338;DHT22;10827;50.878;4.382;2022-07-17T02:30:14;17.90;1.00
21338;DHT22;10827;50.878;4.382;2022-07-17T02:32:40;18.50;99.90
21338;DHT22;10827;50.878;4.382;2022-07-17T02:35:08;18.60;99.90
21338;DHT22;10827;50.878;4.382;2022-07-17T02:37:34;18.30;99.90
21338;DHT22;10827;50.878;4.382;2022-07-17T02:40:01;18.20;1.00
21338;DHT22;10827;50.878;4.382;2022-07-17T02:42:28;17.60;1.00
21338;DHT22;10827;50.878;4.382;2022-07-17T02:44:54;17.70;1.00
21338;DHT22;10827;50.878;4.382;2022-07-17T02:47:22;17.70;1.00
21338;DHT22;10827;50.878;4.382;2022-07-17T02:49:48;18.00;1.00
21338;DHT22;10827;50.878;4.382;2022-07-17T02:52:14;18.10;1.00
21338;DHT22;10827;50.878;4.382;2022-07-17T02:54:40;17.90;1.00
21338;DHT22;10827;50.878;4.382;2022-07-17T02:57:05;18.10;1.00
21338;DHT22;10827;50.878;4.382;2022-07-17T02:59:31;18.30;1.00
21338;DHT22;10827;50.878;4.382;2022-07-17T03:01:57;18.30;1.00
21338;DHT22;10827;50.878;4.382;2022-07-17T03:04:22;18.30;1.00
21338;DHT22;10827;50.878;4.382;2022-07-17T03:06:48;18.20;1.00
21338;DHT22;10827;50.878;4.382;2022-07-17T03:09:14;17.90;1.00
21338;DHT22;10827;50.878;4.382;2022-07-17T03:23:50;17.10;1.00
21338;DHT22;10827;50.878;4.382;2022-07-17T03:26:16;17.10;1.00
21338;DHT22;10827;50.878;4.382;2022-07-17T03:31:09;17.80;1.00
21338;DHT22;10827;50.878;4.382;2022-07-17T03:36:00;17.60;1.00
21338;DHT22;10827;50.878;4.382;2022-07-17T03:38:26;17.60;1.00
21338;DHT22;10827;50.878;4.382;2022-07-17T03:40:52;17.60;1.00
21338;DHT22;10827;50.878;4.382;2022-07-17T03:43:17;17.60;1.00
21338;DHT22;10827;50.878;4.382;2022-07-17T03:45:43;17.70;1.00
21338;DHT22;10827;50.878;4.382;2022-07-17T03:48:09;17.70;1.00
21338;DHT22;10827;50.878;4.382;2022-07-17T03:50:35;17.70;1.00
21338;DHT22;10827;50.878;4.382;2022-07-17T03:53:00;17.80;1.00
21338;DHT22;10827;50.878;4.382;2022-07-17T03:55:26;18.10;1.00
21338;DHT22;10827;50.878;4.382;2022-07-17T03:57:52;17.40;1.00
21338;DHT22;10827;50.878;4.382;2022-07-17T04:00:19;17.30;1.00
21338;DHT22;10827;50.878;4.382;2022-07-17T04:05:11;16.90;1.00
21338;DHT22;10827;50.878;4.382;2022-07-17T04:07:37;17.10;1.00
21338;DHT22;10827;50.878;4.382;2022-07-17T04:10:04;17.40;1.00
21338;DHT22;10827;50.878;4.382;2022-07-17T04:12:30;17.70;1.00
21338;DHT22;10827;50.878;4.382;2022-07-17T04:14:56;16.40;1.00
21338;DHT22;10827;50.878;4.382;2022-07-17T04:19:48;16.80;1.00
21338;DHT22;10827;50.878;4.382;2022-07-17T04:24:41;16.40;1.00
21338;DHT22;10827;50.878;4.382;2022-07-17T04:27:07;16.40;1.00
21338;DHT22;10827;50.878;4.382;2022-07-17T04:29:33;16.70;1.00
21338;DHT22;10827;50.878;4.382;2022-07-17T04:34:25;17.40;1.00
21338;DHT22;10827;50.878;4.382;2022-07-17T04:36:52;17.60;1.00
21338;DHT22;10827;50.878;4.382;2022-07-17T04:39:18;17.40;1.00
21338;DHT22;10827;50.878;4.382;2022-07-17T04:41:43;17.00;1.00
21338;DHT22;10827;50.878;4.382;2022-07-17T04:44:09;16.80;1.00
21338;DHT22;10827;50.878;4.382;2022-07-17T04:46:35;16.70;1.00
21338;DHT22;10827;50.878;4.382;2022-07-17T04:49:00;16.50;1.00
21338;DHT22;10827;50.878;4.382;2022-07-17T04:51:27;16.70;1.00
21338;DHT22;10827;50.878;4.382;2022-07-17T04:53:53;17.30;1.00
21338;DHT22;10827;50.878;4.382;2022-07-17T04:56:20;17.40;1.00
21338;DHT22;10827;50.878;4.382;2022-07-17T04:58:45;17.30;1.00
21338;DHT22;10827;50.878;4.382;2022-07-17T05:01:11;17.20;1.00
21338;DHT22;10827;50.878;4.382;2022-07-17T05:03:37;17.10;1.00
21338;DHT22;10827;50.878;4.382;2022-07-17T05:06:03;16.70;1.00
21338;DHT22;10827;50.878;4.382;2022-07-17T05:08:29;16.60;1.00
21338;DHT22;10827;50.878;4.382;2022-07-17T05:10:55;16.50;1.00
21338;DHT22;10827;50.878;4.382;2022-07-17T05:13:20;16.40;1.00
21338;DHT22;10827;50.878;4.382;2022-07-17T05:15:46;16.50;1.00
21338;DHT22;10827;50.878;4.382;2022-07-17T05:18:12;16.60;1.00
21338;DHT22;10827;50.878;4.382;2022-07-17T05:20:40;16.50;1.00
21338;DHT22;10827;50.878;4.382;2022-07-17T05:23:06;16.60;1.00
21338;DHT22;10827;50.878;4.382;2022-07-17T05:25:32;16.60;1.00
21338;DHT22;10827;50.878;4.382;2022-07-17T05:27:58;16.60;1.00
21338;DHT22;10827;50.878;4.382;2022-07-17T05:30:24;16.50;1.00
21338;DHT22;10827;50.878;4.382;2022-07-17T05:32:50;16.50;1.00
21338;DHT22;10827;50.878;4.382;2022-07-17T05:35:16;17.00;1.00
21338;DHT22;10827;50.878;4.382;2022-07-17T05:37:41;17.20;1.00
21338;DHT22;10827;50.878;4.382;2022-07-17T05:40:08;16.90;1.00
21338;DHT22;10827;50.878;4.382;2022-07-17T05:42:33;16.80;1.00
21338;DHT22;10827;50.878;4.382;2022-07-17T05:44:59;16.70;1.00
21338;DHT22;10827;50.878;4.382;2022-07-17T05:47:25;16.80;1.00
21338;DHT22;10827;50.878;4.382;2022-07-17T05:49:51;16.80;1.00
21338;DHT22;10827;50.878;4.382;2022-07-17T05:52:17;16.80;1.00
21338;DHT22;10827;50.878;4.382;2022-07-17T05:54:43;16.70;1.00
21338;DHT22;10827;50.878;4.382;2022-07-17T05:57:08;17.00;1.00
21338;DHT22;10827;50.878;4.382;2022-07-17T05:59:34;17.10;1.00
21338;DHT22;10827;50.878;4.382;2022-07-17T06:02:00;17.20;1.00
21338;DHT22;10827;50.878;4.382;2022-07-17T06:04:26;17.30;1.00
21338;DHT22;10827;50.878;4.382;2022-07-17T06:06:51;17.30;1.00
21338;DHT22;10827;50.878;4.382;2022-07-17T06:09:17;17.40;1.00
21338;DHT22;10827;50.878;4.382;2022-07-17T06:11:43;17.50;1.00
21338;DHT22;10827;50.878;4.382;2022-07-17T06:14:09;17.50;1.00
21338;DHT22;10827;50.878;4.382;2022-07-17T06:16:35;17.40;1.00
21338;DHT22;10827;50.878;4.382;2022-07-17T06:19:01;17.60;1.00
21338;DHT22;10827;50.878;4.382;2022-07-17T06:21:27;17.80;1.00
21338;DHT22;10827;50.878;4.382;2022-07-17T06:23:54;17.90;1.00
21338;DHT22;10827;50.878;4.382;2022-07-17T06:26:20;18.10;1.00
21338;DHT22;10827;50.878;4.382;2022-07-17T06:28:45;18.10;1.00
21338;DHT22;10827;50.878;4.382;2022-07-17T06:31:11;18.10;1.00
21338;DHT22;10827;50.878;4.382;2022-07-17T06:33:39;18.20;1.00
21338;DHT22;10827;50.878;4.382;2022-07-17T06:36:05;18.50;1.00
21338;DHT22;10827;50.878;4.382;2022-07-17T06:38:32;18.50;1.00
21338;DHT22;10827;50.878;4.382;2022-07-17T06:40:59;18.70;1.00
21338;DHT22;10827;50.878;4.382;2022-07-17T06:43:26;18.80;1.00
21338;DHT22;10827;50.878;4.382;2022-07-17T06:45:51;18.80;1.00
21338;DHT22;10827;50.878;4.382;2022-07-17T06:48:20;18.70;1.00
21338;DHT22;10827;50.878;4.382;2022-07-17T06:50:47;18.90;1.00
21338;DHT22;10827;50.878;4.382;2022-07-17T06:53:14;18.90;1.00
21338;DHT22;10827;50.878;4.382;2022-07-17T06:55:40;18.70;1.00
21338;DHT22;10827;50.878;4.382;2022-07-17T06:58:06;18.90;1.00
21338;DHT22;10827;50.878;4.382;2022-07-17T07:00:32;19.20;99.90
21338;DHT22;10827;50.878;4.382;2022-07-17T07:02:58;19.40;1.00
21338;DHT22;10827;50.878;4.382;2022-07-17T07:05:24;19.50;99.90
21338;DHT22;10827;50.878;4.382;2022-07-17T07:07:50;19.40;99.90
21338;DHT22;10827;50.878;4.382;2022-07-17T07:10:17;19.30;99.90
21338;DHT22;10827;50.878;4.382;2022-07-17T07:12:42;19.40;99.90
21338;DHT22;10827;50.878;4.382;2022-07-17T07:15:09;19.60;99.90
21338;DHT22;10827;50.878;4.382;2022-07-17T07:17:35;19.60;99.90
21338;DHT22;10827;50.878;4.382;2022-07-17T07:20:05;19.60;1.00
21338;DHT22;10827;50.878;4.382;2022-07-17T07:22:31;19.80;1.00
21338;DHT22;10827;50.878;4.382;2022-07-17T07:24:57;19.90;1.00
21338;DHT22;10827;50.878;4.382;2022-07-17T07:27:23;19.80;1.00
21338;DHT22;10827;50.878;4.382;2022-07-17T07:29:49;19.80;1.00
21338;DHT22;10827;50.878;4.382;2022-07-17T07:32:15;19.80;1.00
21338;DHT22;10827;50.878;4.382;2022-07-17T07:34:41;19.80;1.00
21338;DHT22;10827;50.878;4.382;2022-07-17T07:37:07;20.00;1.00
21338;DHT22;10827;50.878;4.382;2022-07-17T07:39:32;20.00;1.00
21338;DHT22;10827;50.878;4.382;2022-07-17T07:41:58;20.20;99.90
21338;DHT22;10827;50.878;4.382;2022-07-17T07:44:25;20.40;99.90
21338;DHT22;10827;50.878;4.382;2022-07-17T07:46:51;20.40;99.90
21338;DHT22;10827;50.878;4.382;2022-07-17T07:49:17;20.40;1.00
21338;DHT22;10827;50.878;4.382;2022-07-17T07:51:43;20.60;1.00
21338;DHT22;10827;50.878;4.382;2022-07-17T07:54:08;20.50;1.00
21338;DHT22;10827;50.878;4.382;2022-07-17T07:56:34;20.90;99.90
21338;DHT22;10827;50.878;4.382;2022-07-17T07:59:02;20.80;1.00
21338;DHT22;10827;50.878;4.382;2022-07-17T08:01:29;21.00;2.30
21338;DHT22;10827;50.878;4.382;2022-07-17T08:03:59;21.10;1.00
21338;DHT22;10827;50.878;4.382;2022-07-17T08:06:25;21.20;99.90
21338;DHT22;10827;50.878;4.382;2022-07-17T08:08:51;21.60;22.50
21338;DHT22;10827;50.878;4.382;2022-07-17T08:11:16;21.50;1.00
21338;DHT22;10827;50.878;4.382;2022-07-17T08:13:42;21.30;1.00
21338;DHT22;10827;50.878;4.382;2022-07-17T08:16:08;21.30;1.00
21338;DHT22;10827;50.878;4.382;2022-07-17T08:18:35;21.40;99.90
21338;DHT22;10827;50.878;4.382;2022-07-17T08:21:00;21.40;1.00
21338;DHT22;10827;50.878;4.382;2022-07-17T08:25:52;21.50;1.00
21338;DHT22;10827;50.878;4.382;2022-07-17T08:28:18;21.30;99.90
21338;DHT22;10827;50.878;4.382;2022-07-17T08:30:44;21.20;1.00
21338;DHT22;10827;50.878;4.382;2022-07-17T08:33:10;21.30;1.00
21338;DHT22;10827;50.878;4.382;2022-07-17T08:35:36;21.60;99.90
21338;DHT22;10827;50.878;4.382;2022-07-17T08:38:03;21.60;1.00
21338;DHT22;10827;50.878;4.382;2022-07-17T08:40:33;21.80;1.00
21338;DHT22;10827;50.878;4.382;2022-07-17T08:43:02;21.60;61.00
21338;DHT22;10827;50.878;4.382;2022-07-17T08:45:29;21.70;1.00
21338;DHT22;10827;50.878;4.382;2022-07-17T08:47:56;21.70;1.00
21338;DHT22;10827;50.878;4.382;2022-07-17T08:50:30;21.80;99.90
21338;DHT22;10827;50.878;4.382;2022-07-17T08:52:58;22.00;1.00
21338;DHT22;10827;50.878;4.382;2022-07-17T08:55:24;22.10;1.00
21338;DHT22;10827;50.878;4.382;2022-07-17T08:57:51;22.10;1.00
21338;DHT22;10827;50.878;4.382;2022-07-17T09:00:20;22.00;1.00
21338;DHT22;10827;50.878;4.382;2022-07-17T09:02:57;22.50;99.90
21338;DHT22;10827;50.878;4.382;2022-07-17T09:05:24;22.40;99.90
21338;DHT22;10827;50.878;4.382;2022-07-17T09:07:51;22.40;16.10
21338;DHT22;10827;50.878;4.382;2022-07-17T09:10:17;22.50;99.90
21338;DHT22;10827;50.878;4.382;2022-07-17T09:15:17;22.40;99.90
21338;DHT22;10827;50.878;4.382;2022-07-17T09:17:53;22.30;1.00
21338;DHT22;10827;50.878;4.382;2022-07-17T09:20:20;22.10;99.90
21338;DHT22;10827;50.878;4.382;2022-07-17T09:23:01;21.90;1.00
21338;DHT22;10827;50.878;4.382;2022-07-17T09:25:36;22.00;1.00
21338;DHT22;10827;50.878;4.382;2022-07-17T09:28:05;22.60;1.00
21338;DHT22;10827;50.878;4.382;2022-07-17T09:30:32;23.10;1.00
21338;DHT22;10827;50.878;4.382;2022-07-17T09:32:58;22.80;99.90
21338;DHT22;10827;50.878;4.382;2022-07-17T09:35:24;22.80;1.00
21338;DHT22;10827;50.878;4.382;2022-07-17T09:37:52;22.90;1.00
21338;DHT22;10827;50.878;4.382;2022-07-17T09:40:18;22.90;1.00
21338;DHT22;10827;50.878;4.382;2022-07-17T09:43:03;22.70;1.00
21338;DHT22;10827;50.878;4.382;2022-07-17T09:45:32;23.20;1.00
21338;DHT22;10827;50.878;4.382;2022-07-17T09:47:59;23.10;1.00
21338;DHT22;10827;50.878;4.382;2022-07-17T09:50:27;23.10;99.90
21338;DHT22;10827;50.878;4.382;2022-07-17T09:52:56;22.90;99.90
21338;DHT22;10827;50.878;4.382;2022-07-17T09:55:27;23.30;99.90
21338;DHT22;10827;50.878;4.382;2022-07-17T09:57:54;23.40;99.90
21338;DHT22;10827;50.878;4.382;2022-07-17T10:00:21;23.50;99.90
21338;DHT22;10827;50.878;4.382;2022-07-17T10:05:15;23.40;99.90
21338;DHT22;10827;50.878;4.382;2022-07-17T10:07:45;23.20;99.90
21338;DHT22;10827;50.878;4.382;2022-07-17T10:10:13;22.60;1.00
21338;DHT22;10827;50.878;4.382;2022-07-17T10:12:43;23.60;99.90
21338;DHT22;10827;50.878;4.382;2022-07-17T10:15:09;23.70;1.00
21338;DHT22;10827;50.878;4.382;2022-07-17T10:17:36;23.70;99.90
21338;DHT22;10827;50.878;4.382;2022-07-17T10:20:02;23.90;99.90
21338;DHT22;10827;50.878;4.382;2022-07-17T10:22:41;23.80;1.00
21338;DHT22;10827;50.878;4.382;2022-07-17T10:25:11;24.30;95.30
21338;DHT22;10827;50.878;4.382;2022-07-17T10:27:54;24.30;1.00
21338;DHT22;10827;50.878;4.382;2022-07-17T10:30:29;24.60;1.00
21338;DHT22;10827;50.878;4.382;2022-07-17T10:32:59;25.30;1.00
21338;DHT22;10827;50.878;4.382;2022-07-17T10:35:27;24.70;1.00
21338;DHT22;10827;50.878;4.382;2022-07-17T10:37:57;24.40;99.90
21338;DHT22;10827;50.878;4.382;2022-07-17T10:40:24;24.30;1.00
21338;DHT22;10827;50.878;4.382;2022-07-17T10:43:02;24.30;1.00
21338;DHT22;10827;50.878;4.382;2022-07-17T10:45:35;24.50;1.00
21338;DHT22;10827;50.878;4.382;2022-07-17T10:48:17;24.80;1.00
21338;DHT22;10827;50.878;4.382;2022-07-17T10:50:49;24.90;99.90
21338;DHT22;10827;50.878;4.382;2022-07-17T10:53:28;24.80;1.00
21338;DHT22;10827;50.878;4.382;2022-07-17T10:55:57;25.00;1.00
21338;DHT22;10827;50.878;4.382;2022-07-17T10:58:36;24.90;1.00
21338;DHT22;10827;50.878;4.382;2022-07-17T11:06:17;25.00;99.90
21338;DHT22;10827;50.878;4.382;2022-07-17T11:08:48;25.00;99.90
21338;DHT22;10827;50.878;4.382;2022-07-17T11:11:16;24.70;99.90
21338;DHT22;10827;50.878;4.382;2022-07-17T11:13:42;24.80;1.00
21338;DHT22;10827;50.878;4.382;2022-07-17T11:16:08;24.80;99.90
21338;DHT22;10827;50.878;4.382;2022-07-17T11:18:34;24.80;1.00
21338;DHT22;10827;50.878;4.382;2022-07-17T11:21:02;25.10;99.90
21338;DHT22;10827;50.878;4.382;2022-07-17T11:23:30;25.40;99.90
21338;DHT22;10827;50.878;4.382;2022-07-17T11:26:04;25.30;99.90
21338;DHT22;10827;50.878;4.382;2022-07-17T11:28:32;25.00;99.90
21338;DHT22;10827;50.878;4.382;2022-07-17T11:30:59;25.20;99.90
21338;DHT22;10827;50.878;4.382;2022-07-17T11:33:25;25.50;99.90
21338;DHT22;10827;50.878;4.382;2022-07-17T11:35:51;25.40;1.00
21338;DHT22;10827;50.878;4.382;2022-07-17T11:38:25;25.10;99.90
21338;DHT22;10827;50.878;4.382;2022-07-17T11:40:51;25.80;99.90
21338;DHT22;10827;50.878;4.382;2022-07-17T11:43:17;25.90;99.90
21338;DHT22;10827;50.878;4.382;2022-07-17T11:45:42;26.10;99.90
21338;DHT22;10827;50.878;4.382;2022-07-17T11:48:10;26.10;99.90
21338;DHT22;10827;50.878;4.382;2022-07-17T11:50:36;25.50;27.50
21338;DHT22;10827;50.878;4.382;2022-07-17T11:53:04;25.80;1.00
21338;DHT22;10827;50.878;4.382;2022-07-17T11:55:38;25.80;1.00
21338;DHT22;10827;50.878;4.382;2022-07-17T11:58:03;26.40;1.00
21338;DHT22;10827;50.878;4.382;2022-07-17T12:00:29;26.50;1.00
21338;DHT22;10827;50.878;4.382;2022-07-17T12:03:03;26.60;1.00
21338;DHT22;10827;50.878;4.382;2022-07-17T12:05:31;26.60;1.00
21338;DHT22;10827;50.878;4.382;2022-07-17T12:07:57;26.50;1.00
21338;DHT22;10827;50.878;4.382;2022-07-17T12:10:26;26.70;1.00
21338;DHT22;10827;50.878;4.382;2022-07-17T12:13:01;26.50;1.00
21338;DHT22;10827;50.878;4.382;2022-07-17T12:15:46;26.80;1.00
21338;DHT22;10827;50.878;4.382;2022-07-17T12:18:28;26.90;1.00
21338;DHT22;10827;50.878;4.382;2022-07-17T12:20:58;27.00;1.00
21338;DHT22;10827;50.878;4.382;2022-07-17T12:23:31;27.00;1.00
21338;DHT22;10827;50.878;4.382;2022-07-17T12:28:29;27.00;1.00
21338;DHT22;10827;50.878;4.382;2022-07-17T12:30:55;27.30;1.00
21338;DHT22;10827;50.878;4.382;2022-07-17T12:33:21;27.50;1.00
21338;DHT22;10827;50.878;4.382;2022-07-17T12:35:47;27.80;1.00
21338;DHT22;10827;50.878;4.382;2022-07-17T12:38:13;27.80;1.00
21338;DHT22;10827;50.878;4.382;2022-07-17T12:40:38;27.80;1.00
21338;DHT22;10827;50.878;4.382;2022-07-17T12:43:04;27.90;99.90
21338;DHT22;10827;50.878;4.382;2022-07-17T12:45:30;27.70;1.00
21338;DHT22;10827;50.878;4.382;2022-07-17T12:47:55;27.70;1.00
21338;DHT22;10827;50.878;4.382;2022-07-17T12:50:21;27.70;1.00
21338;DHT22;10827;50.878;4.382;2022-07-17T12:52:48;27.70;99.90
21338;DHT22;10827;50.878;4.382;2022-07-17T12:55:14;27.90;1.00
21338;DHT22;10827;50.878;4.382;2022-07-17T12:57:39;28.00;1.00
21338;DHT22;10827;50.878;4.382;2022-07-17T13:00:05;28.10;1.00
21338;DHT22;10827;50.878;4.382;2022-07-17T13:02:31;28.10;99.90
21338;DHT22;10827;50.878;4.382;2022-07-17T13:04:57;28.30;99.90
21338;DHT22;10827;50.878;4.382;2022-07-17T13:07:23;28.60;99.90
21338;DHT22;10827;50.878;4.382;2022-07-17T13:09:48;28.70;99.90
21338;DHT22;10827;50.878;4.382;2022-07-17T13:12:14;28.50;99.90
21338;DHT22;10827;50.878;4.382;2022-07-17T13:14:40;29.70;1.00
21338;DHT22;10827;50.878;4.382;2022-07-17T13:17:06;29.60;99.90
21338;DHT22;10827;50.878;4.382;2022-07-17T13:19:32;29.70;99.90
21338;DHT22;10827;50.878;4.382;2022-07-17T13:21:57;30.40;99.90
21338;DHT22;10827;50.878;4.382;2022-07-17T13:24:23;30.90;99.90
21338;DHT22;10827;50.878;4.382;2022-07-17T13:26:49;31.00;99.90
21338;DHT22;10827;50.878;4.382;2022-07-17T13:29:15;31.50;99.90
21338;DHT22;10827;50.878;4.382;2022-07-17T13:31:41;31.80;99.90
21338;DHT22;10827;50.878;4.382;2022-07-17T13:34:07;31.80;99.90
21338;DHT22;10827;50.878;4.382;2022-07-17T13:36:33;33.00;99.90
21338;DHT22;10827;50.878;4.382;2022-07-17T13:39:00;33.30;50.30
21338;DHT22;10827;50.878;4.382;2022-07-17T13:41:26;34.30;32.00
21338;DHT22;10827;50.878;4.382;2022-07-17T13:43:52;35.00;1.00
21338;DHT22;10827;50.878;4.382;2022-07-17T13:46:17;35.80;1.00
21338;DHT22;10827;50.878;4.382;2022-07-17T13:48:43;36.40;1.00
21338;DHT22;10827;50.878;4.382;2022-07-17T13:51:09;37.10;1.00
21338;DHT22;10827;50.878;4.382;2022-07-17T13:53:34;37.70;1.00
21338;DHT22;10827;50.878;4.382;2022-07-17T13:56:00;37.30;1.00
21338;DHT22;10827;50.878;4.382;2022-07-17T13:58:26;36.40;1.00
21338;DHT22;10827;50.878;4.382;2022-07-17T14:00:52;36.00;1.00
21338;DHT22;10827;50.878;4.382;2022-07-17T14:03:18;36.20;1.00
21338;DHT22;10827;50.878;4.382;2022-07-17T14:05:43;35.40;1.00
21338;DHT22;10827;50.878;4.382;2022-07-17T14:08:09;36.10;1.00
21338;DHT22;10827;50.878;4.382;2022-07-17T14:10:35;34.80;1.00
21338;DHT22;10827;50.878;4.382;2022-07-17T14:13:00;35.50;99.90
21338;DHT22;10827;50.878;4.382;2022-07-17T14:15:26;35.60;1.00
21338;DHT22;10827;50.878;4.382;2022-07-17T14:17:52;34.60;1.00
21338;DHT22;10827;50.878;4.382;2022-07-17T14:20:18;34.70;1.00
21338;DHT22;10827;50.878;4.382;2022-07-17T14:22:43;34.80;1.00
21338;DHT22;10827;50.878;4.382;2022-07-17T14:25:09;36.60;1.00
21338;DHT22;10827;50.878;4.382;2022-07-17T14:27:35;34.80;1.00
21338;DHT22;10827;50.878;4.382;2022-07-17T14:30:01;34.90;1.00
21338;DHT22;10827;50.878;4.382;2022-07-17T14:32:27;35.80;99.90
21338;DHT22;10827;50.878;4.382;2022-07-17T14:34:52;35.70;1.00
21338;DHT22;10827;50.878;4.382;2022-07-17T14:37:18;35.20;1.00
21338;DHT22;10827;50.878;4.382;2022-07-17T14:39:44;34.00;99.90
21338;DHT22;10827;50.878;4.382;2022-07-17T14:42:10;34.00;1.00
21338;DHT22;10827;50.878;4.382;2022-07-17T14:44:36;32.50;99.90
21338;DHT22;10827;50.878;4.382;2022-07-17T14:47:02;32.40;99.90
21338;DHT22;10827;50.878;4.382;2022-07-17T14:49:28;32.80;99.90
21338;DHT22;10827;50.878;4.382;2022-07-17T14:51:54;33.00;99.90
21338;DHT22;10827;50.878;4.382;2022-07-17T14:54:20;33.40;99.90
21338;DHT22;10827;50.878;4.382;2022-07-17T14:56:46;33.00;99.90
21338;DHT22;10827;50.878;4.382;2022-07-17T14:59:12;32.80;99.90
21338;DHT22;10827;50.878;4.382;2022-07-17T15:01:38;33.00;1.00
21338;DHT22;10827;50.878;4.382;2022-07-17T15:04:03;33.20;99.90
21338;DHT22;10827;50.878;4.382;2022-07-17T15:06:29;33.40;1.00
21338;DHT22;10827;50.878;4.382;2022-07-17T15:08:55;34.20;99.90
21338;DHT22;10827;50.878;4.382;2022-07-17T15:11:21;34.30;1.00
21338;DHT22;10827;50.878;4.382;2022-07-17T15:13:46;35.10;1.00
21338;DHT22;10827;50.878;4.382;2022-07-17T15:16:12;35.70;1.00
21338;DHT22;10827;50.878;4.382;2022-07-17T15:18:38;36.60;1.00
21338;DHT22;10827;50.878;4.382;2022-07-17T15:21:04;35.10;1.00
21338;DHT22;10827;50.878;4.382;2022-07-17T15:23:29;35.90;1.00
21338;DHT22;10827;50.878;4.382;2022-07-17T15:25:56;36.10;1.00
21338;DHT22;10827;50.878;4.382;2022-07-17T15:28:22;36.30;1.00
21338;DHT22;10827;50.878;4.382;2022-07-17T15:30:48;36.30;1.00
21338;DHT22;10827;50.878;4.382;2022-07-17T15:33:13;36.10;1.00
21338;DHT22;10827;50.878;4.382;2022-07-17T15:35:39;36.90;99.90
21338;DHT22;10827;50.878;4.382;2022-07-17T15:38:05;36.80;1.00
21338;DHT22;10827;50.878;4.382;2022-07-17T15:40:31;37.40;1.00
21338;DHT22;10827;50.878;4.382;2022-07-17T15:42:56;37.20;1.00
21338;DHT22;10827;50.878;4.382;2022-07-17T15:45:22;37.20;1.00
21338;DHT22;10827;50.878;4.382;2022-07-17T15:47:49;36.80;1.00
21338;DHT22;10827;50.878;4.382;2022-07-17T15:50:15;36.70;1.00
21338;DHT22;10827;50.878;4.382;2022-07-17T15:52:41;36.60;1.00
21338;DHT22;10827;50.878;4.382;2022-07-17T15:55:07;37.10;1.00
21338;DHT22;10827;50.878;4.382;2022-07-17T15:57:33;36.90;1.00
21338;DHT22;10827;50.878;4.382;2022-07-17T15:59:59;36.60;1.00
21338;DHT22;10827;50.878;4.382;2022-07-17T16:02:25;36.70;1.00
21338;DHT22;10827;50.878;4.382;2022-07-17T16:04:51;36.10;1.00
21338;DHT22;10827;50.878;4.382;2022-07-17T16:07:16;36.00;1.00
21338;DHT22;10827;50.878;4.382;2022-07-17T16:09:42;35.50;1.00
21338;DHT22;10827;50.878;4.382;2022-07-17T16:12:08;35.90;1.00
21338;DHT22;10827;50.878;4.382;2022-07-17T16:14:34;36.30;1.00
21338;DHT22;10827;50.878;4.382;2022-07-17T16:17:00;35.80;99.90
21338;DHT22;10827;50.878;4.382;2022-07-17T16:19:25;35.80;1.00
21338;DHT22;10827;50.878;4.382;2022-07-17T16:21:51;35.60;1.00
21338;DHT22;10827;50.878;4.382;2022-07-17T16:24:17;35.30;99.90
21338;DHT22;10827;50.878;4.382;2022-07-17T16:26:42;35.20;1.00
21338;DHT22;10827;50.878;4.382;2022-07-17T16:29:10;34.70;99.90
21338;DHT22;10827;50.878;4.382;2022-07-17T16:31:36;34.00;99.90
21338;DHT22;10827;50.878;4.382;2022-07-17T16:34:02;34.30;99.90